Airfield :
LOGIN :

Register | Disclaimer

   EN    FR    IT 

 










Legend :    VFR   Marginal VFR   IFR   Intensive IFR   Very Intensive IFR
Visi :
Ceiling :
>= 8 km
>= 3000ft
5 to 8 km
1000 to 3000 ft
1500m to 5 km
500 to 1000 ft
800 to 1500m
200 to 500 ft
< 800m
< 200 ft
Symbols :   Thunderstorms  Fog  Heavy snow  Heavy precipitations  Wind > 20 kt
SIGMETs :     Misc.  Thunderstorms  Icing  Turbulence  Mountain Waves  Volcanic Ashes







- Airport Elevation : 19 ft
- IATA code : LCY
- Download approach charts


EGLC - London City

CURRENT METAR :
  • 201620Z AUTO 02006KT 340V100 5000 -RA BKN006 OVC010 04/03 Q1000

EXPIRED METARs :
  • 201550Z AUTO 03005KT 350V080 6000 -RA OVC006 05/03 Q0999
  • 201520Z AUTO 06006KT 020V080 7000 -RA BKN005 BKN011 OVC016 04/03 Q0999 RERA
  • 201450Z AUTO 06006KT 7000 -RA BKN003/// OVC010/// //////TCU 04/03 Q0998 RERA
  • 201420Z AUTO 07006KT 3800 RA BKN003/// OVC009/// //////CB 04/04 Q0998
  • 201350Z AUTO 10006KT 6000 -RA SCT004/// BKN008/// OVC013/// //////CB 05/04 Q0998

Expired Forecast.
ATIS : +44 20 7646 0224
No reported NOTAMs for that airfield.
2 SIGMETs reported for the London FIR (EGTT) :
 
Severe icing
EGTT SIGMET 07 VALID 201500/201700 EGRR
EGTT LONDON FIR SEV ICE FCST WI N5253 W00238 - N5144 W00303 - N5158 W00356 - N5259 W00349 - N5253 W00238 FL020/070 STNR WKN=
Severe turbulence
EGTT SIGMET 06 VALID 201500/201900 EGRR
EGTT LONDON FIR SEV TURB FCST S OF LINE N5000 W00200 - N5100 W00800 SFC/FL060 MOV S 15KT WKN=



MET'MAP, your aeronautical weather chart ! - Copyright ORBIFLY December 2007 - Disclaimer

ORBIFLY MET'MAP TEAM :

Programming & Development : Alexandra Zaïnal
Concept & Development : Baudouin d'Aumeries
Co-Development & Prog : Marc-Olivier Méhu
Technical & hardware support : Manuel Goepfert

Contact : metmap@orbifly.com




SOURCES & CREDITS :

   NOAA